createdAt,value
2017-05-20T00:00:22.378Z,0
2017-05-20T00:01:24.213Z,0
2017-05-20T00:02:26.063Z,0
2017-05-20T00:03:27.917Z,0
2017-05-20T00:04:29.753Z,0
2017-05-20T00:05:31.599Z,0
2017-05-20T00:06:33.413Z,0
2017-05-20T00:07:47.640Z,0
2017-05-20T00:08:49.484Z,0
2017-05-20T00:09:51.303Z,0
2017-05-20T00:10:53.116Z,0
2017-05-20T00:11:54.943Z,0
2017-05-20T00:12:56.785Z,0
2017-05-20T00:13:58.634Z,0
2017-05-20T00:15:00.472Z,0
2017-05-20T00:16:02.291Z,0
2017-05-20T00:17:16.423Z,0
2017-05-20T00:18:18.270Z,0
2017-05-20T00:19:20.106Z,0
2017-05-20T00:20:21.950Z,0
2017-05-20T00:21:23.770Z,0
2017-05-20T00:22:25.615Z,0
2017-05-20T00:23:27.508Z,0
2017-05-20T00:24:29.326Z,0
2017-05-20T00:25:31.171Z,0
2017-05-20T00:26:45.348Z,0
2017-05-20T00:27:47.191Z,0
2017-05-20T00:28:49.133Z,0
2017-05-20T00:29:50.952Z,0
2017-05-20T00:30:52.769Z,0
2017-05-20T00:31:54.610Z,0
2017-05-20T00:32:56.431Z,0
2017-05-20T00:33:58.480Z,0
2017-05-20T00:35:00.294Z,0
2017-05-20T00:36:14.418Z,0
2017-05-20T00:37:16.241Z,0
2017-05-20T00:38:18.090Z,0
2017-05-20T00:39:19.930Z,0
2017-05-20T00:40:21.780Z,0
2017-05-20T00:41:23.613Z,0
2017-05-20T00:42:25.458Z,0
2017-05-20T00:43:27.279Z,0
2017-05-20T00:44:29.116Z,0
2017-05-20T00:45:43.216Z,0
2017-05-20T00:46:45.036Z,0
2017-05-20T00:47:46.884Z,0
2017-05-20T00:48:48.699Z,0
2017-05-20T00:49:50.641Z,0
2017-05-20T00:50:52.485Z,0
2017-05-20T00:51:54.302Z,0
2017-05-20T00:52:56.123Z,0
2017-05-20T00:53:57.974Z,0
2017-05-20T00:55:12.443Z,0
2017-05-20T00:56:14.287Z,0
2017-05-20T00:57:16.133Z,0
2017-05-20T00:58:17.947Z,0
2017-05-20T00:59:19.765Z,0
2017-05-20T01:00:21.628Z,0
2017-05-20T01:01:23.449Z,0
2017-05-20T01:02:25.295Z,0
2017-05-20T01:03:27.135Z,0
2017-05-20T01:04:41.559Z,0
2017-05-20T01:05:43.406Z,0
2017-05-20T01:06:45.221Z,0
2017-05-20T01:07:47.063Z,0
2017-05-20T01:08:48.908Z,0
2017-05-20T01:09:50.749Z,0
2017-05-20T01:10:52.696Z,0
2017-05-20T01:11:54.542Z,0
2017-05-20T01:12:56.380Z,0
2017-05-20T01:14:10.484Z,0
2017-05-20T01:15:12.294Z,0
2017-05-20T01:16:14.115Z,0
2017-05-20T01:17:15.931Z,0
2017-05-20T01:18:17.750Z,0
2017-05-20T01:19:19.588Z,0
2017-05-20T01:20:21.404Z,0
2017-05-20T01:21:23.446Z,0
2017-05-20T01:22:25.294Z,0
2017-05-20T01:23:39.411Z,0
2017-05-20T01:24:41.256Z,0
2017-05-20T01:25:43.072Z,0
2017-05-20T01:26:45.087Z,0
2017-05-20T01:27:46.929Z,0
2017-05-20T01:28:48.742Z,0
2017-05-20T01:29:50.585Z,0
2017-05-20T01:30:52.429Z,0
2017-05-20T01:31:54.646Z,0
2017-05-20T01:33:08.865Z,0
2017-05-20T01:34:10.711Z,0
2017-05-20T01:35:12.555Z,0
2017-05-20T01:36:14.394Z,0
2017-05-20T01:37:16.262Z,0
2017-05-20T01:38:18.080Z,0
2017-05-20T01:39:19.898Z,0
2017-05-20T01:40:21.716Z,0
2017-05-20T01:41:23.557Z,0
2017-05-20T01:42:37.881Z,0
2017-05-20T01:43:39.726Z,0
2017-05-20T01:44:41.562Z,0
2017-05-20T01:45:43.406Z,0
2017-05-20T01:46:45.247Z,0
2017-05-20T01:47:47.112Z,0
2017-05-20T01:48:48.959Z,0
2017-05-20T01:49:50.772Z,0
2017-05-20T01:50:52.609Z,0
2017-05-20T01:52:06.855Z,0
2017-05-20T01:53:08.670Z,0
2017-05-20T01:54:10.493Z,0
2017-05-20T01:55:12.333Z,0
2017-05-20T01:56:14.153Z,0
2017-05-20T01:57:15.991Z,0
2017-05-20T01:58:17.860Z,0
2017-05-20T01:59:19.710Z,0
2017-05-20T02:00:21.555Z,0
2017-05-20T02:01:35.722Z,0
2017-05-20T02:02:37.571Z,0
2017-05-20T02:03:39.412Z,0
2017-05-20T02:04:41.265Z,0
2017-05-20T02:05:43.100Z,0
2017-05-20T02:06:44.920Z,0
2017-05-20T02:07:46.740Z,0
2017-05-20T02:08:48.583Z,0
2017-05-20T02:09:50.423Z,0
2017-05-20T02:11:04.559Z,0
2017-05-20T02:12:06.393Z,0
2017-05-20T02:13:08.219Z,0
2017-05-20T02:14:10.355Z,0
2017-05-20T02:15:12.196Z,0
2017-05-20T02:16:14.037Z,0
2017-05-20T02:17:15.862Z,0
2017-05-20T02:18:17.699Z,0
2017-05-20T02:19:19.745Z,0
2017-05-20T02:20:33.869Z,0
2017-05-20T02:21:35.707Z,0
2017-05-20T02:22:37.555Z,0
2017-05-20T02:23:39.399Z,0
2017-05-20T02:24:41.242Z,0
2017-05-20T02:25:43.059Z,0
2017-05-20T02:26:44.877Z,0
2017-05-20T02:27:46.721Z,0
2017-05-20T02:28:48.566Z,0
2017-05-20T02:30:02.991Z,0
2017-05-20T02:31:04.841Z,0
2017-05-20T02:32:06.677Z,0
2017-05-20T02:33:08.519Z,0
2017-05-20T02:34:10.358Z,0
2017-05-20T02:35:12.280Z,0
2017-05-20T02:36:14.096Z,0
2017-05-20T02:37:15.937Z,0
2017-05-20T02:38:17.761Z,0
2017-05-20T02:39:31.887Z,0
2017-05-20T02:40:33.727Z,0
2017-05-20T02:41:35.580Z,0
2017-05-20T02:42:37.418Z,0
2017-05-20T02:43:39.256Z,0
2017-05-20T02:44:41.076Z,0
2017-05-20T02:45:43.316Z,0
2017-05-20T02:46:45.136Z,0
2017-05-20T02:47:46.985Z,0
2017-05-20T02:49:01.110Z,0
2017-05-20T02:50:02.954Z,0
2017-05-20T02:51:04.974Z,0
2017-05-20T02:52:06.814Z,0
2017-05-20T02:53:08.637Z,0
2017-05-20T02:54:10.481Z,0
2017-05-20T02:55:12.330Z,0
2017-05-20T02:56:14.254Z,0
2017-05-20T02:57:16.100Z,0
2017-05-20T02:58:30.233Z,0
2017-05-20T02:59:32.076Z,0
2017-05-20T03:00:33.895Z,0
2017-05-20T03:01:35.935Z,0
2017-05-20T03:02:37.778Z,0
2017-05-20T03:03:39.631Z,0
2017-05-20T03:04:41.469Z,0
2017-05-20T03:05:43.293Z,0
2017-05-20T03:06:45.138Z,0
2017-05-20T03:07:59.261Z,0
2017-05-20T03:09:01.079Z,0
2017-05-20T03:10:02.898Z,0
2017-05-20T03:11:04.721Z,5
2017-05-20T03:12:06.965Z,5
2017-05-20T03:13:08.813Z,5
2017-05-20T03:14:10.656Z,5
2017-05-20T03:15:12.505Z,5
2017-05-20T03:16:14.403Z,5
2017-05-20T03:17:28.637Z,5
2017-05-20T03:18:30.485Z,10
2017-05-20T03:19:32.332Z,10
2017-05-20T03:20:34.151Z,15
2017-05-20T03:21:35.999Z,15
2017-05-20T03:22:38.240Z,10
2017-05-20T03:23:40.082Z,10
2017-05-20T03:24:41.930Z,10
2017-05-20T03:25:43.748Z,15
2017-05-20T03:26:57.849Z,10
2017-05-20T03:27:59.698Z,10
2017-05-20T03:29:01.544Z,15
2017-05-20T03:30:03.364Z,15
2017-05-20T03:31:05.215Z,15
2017-05-20T03:32:07.065Z,20
2017-05-20T03:33:09.206Z,20
2017-05-20T03:34:11.055Z,15
2017-05-20T03:35:12.898Z,15
2017-05-20T03:36:27.046Z,20
2017-05-20T03:37:28.865Z,25
2017-05-20T03:38:30.856Z,25
2017-05-20T03:39:32.655Z,20
2017-05-20T03:40:34.501Z,20
2017-05-20T03:41:36.351Z,20
2017-05-20T03:42:38.199Z,20
2017-05-20T03:43:40.239Z,25
2017-05-20T03:44:42.063Z,20
2017-05-20T03:45:56.212Z,25
2017-05-20T03:46:58.059Z,25
2017-05-20T03:47:59.913Z,25
2017-05-20T03:49:01.756Z,25
2017-05-20T03:50:03.598Z,20
2017-05-20T03:51:05.418Z,30
2017-05-20T03:52:07.242Z,35
2017-05-20T03:53:09.085Z,35
2017-05-20T03:54:11.234Z,35
2017-05-20T03:55:25.388Z,40
2017-05-20T03:56:27.234Z,40
2017-05-20T03:57:29.051Z,40
2017-05-20T03:58:30.874Z,35
2017-05-20T03:59:33.073Z,40
2017-05-20T04:00:34.912Z,35
2017-05-20T04:01:36.737Z,30
2017-05-20T04:02:38.553Z,30
2017-05-20T04:03:40.372Z,30
2017-05-20T04:04:54.551Z,30
2017-05-20T04:05:56.401Z,25
2017-05-20T04:06:58.246Z,25
2017-05-20T04:08:00.063Z,25
2017-05-20T04:09:01.886Z,30
2017-05-20T04:10:04.027Z,35
2017-05-20T04:11:05.854Z,40
2017-05-20T04:12:07.694Z,35
2017-05-20T04:13:09.519Z,35
2017-05-20T04:14:23.696Z,40
2017-05-20T04:15:25.542Z,35
2017-05-20T04:16:27.395Z,40
2017-05-20T04:17:29.213Z,40
2017-05-20T04:18:31.057Z,40
2017-05-20T04:19:32.881Z,35
2017-05-20T04:20:34.826Z,45
2017-05-20T04:21:36.676Z,75
2017-05-20T04:22:38.495Z,120
2017-05-20T04:23:52.684Z,150
2017-05-20T04:24:54.498Z,170
2017-05-20T04:25:56.518Z,180
2017-05-20T04:26:58.341Z,180
2017-05-20T04:28:00.160Z,160
2017-05-20T04:29:02.009Z,155
2017-05-20T04:30:03.838Z,135
2017-05-20T04:31:05.688Z,120
2017-05-20T04:32:07.537Z,105
2017-05-20T04:33:21.716Z,90
2017-05-20T04:34:23.539Z,85
2017-05-20T04:35:25.387Z,80
2017-05-20T04:36:27.235Z,70
2017-05-20T04:37:29.053Z,80
2017-05-20T04:38:30.882Z,75
2017-05-20T04:39:32.728Z,65
2017-05-20T04:40:34.553Z,75
2017-05-20T04:41:36.496Z,75
2017-05-20T04:42:50.599Z,70
2017-05-20T04:43:52.447Z,65
2017-05-20T04:44:54.298Z,60
2017-05-20T04:45:56.119Z,60
2017-05-20T04:46:58.259Z,75
2017-05-20T04:48:00.083Z,70
2017-05-20T04:49:01.906Z,70
2017-05-20T04:50:03.751Z,70
2017-05-20T04:51:05.573Z,85
2017-05-20T04:52:19.701Z,100
2017-05-20T04:53:21.553Z,115
2017-05-20T04:54:23.394Z,125
2017-05-20T04:55:25.221Z,130
2017-05-20T04:56:27.037Z,120
2017-05-20T04:57:28.863Z,140
2017-05-20T04:58:30.685Z,155
2017-05-20T04:59:32.502Z,195
2017-05-20T05:00:34.325Z,210
2017-05-20T05:01:48.534Z,255
2017-05-20T05:02:50.383Z,285
2017-05-20T05:03:52.236Z,230
2017-05-20T05:04:54.078Z,185
2017-05-20T05:05:55.935Z,200
2017-05-20T05:06:57.781Z,210
2017-05-20T05:07:59.655Z,225
2017-05-20T05:09:01.477Z,230
2017-05-20T05:10:03.331Z,225
2017-05-20T05:11:17.457Z,220
2017-05-20T05:12:19.309Z,205
2017-05-20T05:13:21.162Z,195
2017-05-20T05:14:22.982Z,170
2017-05-20T05:15:24.824Z,175
2017-05-20T05:16:26.650Z,175
2017-05-20T05:17:28.491Z,190
2017-05-20T05:18:30.369Z,220
2017-05-20T05:19:32.213Z,240
2017-05-20T05:20:46.402Z,210
2017-05-20T05:21:48.242Z,200
2017-05-20T05:22:50.095Z,205
2017-05-20T05:23:52.042Z,195
2017-05-20T05:24:53.871Z,175
2017-05-20T05:25:55.723Z,155
2017-05-20T05:26:57.566Z,155
2017-05-20T05:27:59.421Z,150
2017-05-20T05:29:01.673Z,150
2017-05-20T05:30:15.853Z,175
2017-05-20T05:31:17.672Z,190
2017-05-20T05:32:19.494Z,220
2017-05-20T05:33:21.322Z,225
2017-05-20T05:34:23.166Z,215
2017-05-20T05:35:25.016Z,215
2017-05-20T05:36:26.840Z,215
2017-05-20T05:37:28.694Z,210
2017-05-20T05:38:30.539Z,215
2017-05-20T05:39:44.695Z,235
2017-05-20T05:40:46.545Z,215
2017-05-20T05:41:48.398Z,235
2017-05-20T05:42:50.244Z,240
2017-05-20T05:43:52.074Z,245
2017-05-20T05:44:54.017Z,240
2017-05-20T05:45:55.863Z,210
2017-05-20T05:46:57.691Z,200
2017-05-20T05:47:59.541Z,215
2017-05-20T05:49:13.641Z,200
2017-05-20T05:50:15.460Z,195
2017-05-20T05:51:17.292Z,175
2017-05-20T05:52:19.135Z,175
2017-05-20T05:53:20.963Z,175
2017-05-20T05:54:22.815Z,170
2017-05-20T05:55:24.665Z,190
2017-05-20T05:56:26.492Z,195
2017-05-20T05:57:28.335Z,205
2017-05-20T05:58:42.471Z,210
2017-05-20T05:59:44.324Z,205
2017-05-20T06:00:46.169Z,200
2017-05-20T06:01:48.016Z,195
2017-05-20T06:02:49.834Z,210
2017-05-20T06:03:51.662Z,210
2017-05-20T06:04:53.510Z,205
2017-05-20T06:05:55.463Z,255
2017-05-20T06:06:57.312Z,270
2017-05-20T06:08:11.459Z,230
2017-05-20T06:09:13.286Z,250
2017-05-20T06:10:15.110Z,280
2017-05-20T06:11:17.132Z,295
2017-05-20T06:12:18.981Z,270
2017-05-20T06:13:20.831Z,280
2017-05-20T06:14:22.679Z,325
2017-05-20T06:15:24.532Z,340
2017-05-20T06:16:26.373Z,355
2017-05-20T06:17:40.485Z,370
2017-05-20T06:18:42.335Z,355
2017-05-20T06:19:44.160Z,340
2017-05-20T06:20:46.013Z,305
2017-05-20T06:21:47.832Z,280
2017-05-20T06:22:49.682Z,260
2017-05-20T06:23:51.527Z,235
2017-05-20T06:24:53.357Z,225
2017-05-20T06:25:55.207Z,245
2017-05-20T06:27:09.387Z,305
2017-05-20T06:28:11.213Z,320
2017-05-20T06:29:13.057Z,335
2017-05-20T06:30:14.880Z,330
2017-05-20T06:31:16.702Z,380
2017-05-20T06:32:18.750Z,390
2017-05-20T06:33:20.584Z,380
2017-05-20T06:34:22.424Z,360
2017-05-20T06:35:24.276Z,375
2017-05-20T06:36:38.616Z,405
2017-05-20T06:37:40.474Z,425
2017-05-20T06:38:42.296Z,405
2017-05-20T06:39:44.145Z,415
2017-05-20T06:40:45.997Z,425
2017-05-20T06:41:47.826Z,480
2017-05-20T06:42:49.697Z,520
2017-05-20T06:43:51.524Z,485
2017-05-20T06:44:53.376Z,445
2017-05-20T06:46:07.487Z,440
2017-05-20T06:47:09.312Z,480
2017-05-20T06:48:11.161Z,495
2017-05-20T06:49:12.981Z,500
2017-05-20T06:50:14.812Z,500
2017-05-20T06:51:16.668Z,495
2017-05-20T06:52:18.517Z,450
2017-05-20T06:53:20.396Z,420
2017-05-20T06:54:22.217Z,405
2017-05-20T06:55:36.401Z,420
2017-05-20T06:56:38.234Z,450
2017-05-20T06:57:40.078Z,460
2017-05-20T06:58:42.009Z,490
2017-05-20T06:59:43.854Z,505
2017-05-20T07:00:45.714Z,540
2017-05-20T07:01:47.564Z,545
2017-05-20T07:02:49.397Z,625
2017-05-20T07:03:51.243Z,590
2017-05-20T07:05:05.388Z,595
2017-05-20T07:06:07.233Z,585
2017-05-20T07:07:09.064Z,540
2017-05-20T07:08:10.915Z,575
2017-05-20T07:09:12.868Z,600
2017-05-20T07:10:14.718Z,600
2017-05-20T07:11:16.597Z,545
2017-05-20T07:12:18.438Z,455
2017-05-20T07:13:20.295Z,425
2017-05-20T07:14:34.453Z,475
2017-05-20T07:15:36.301Z,500
2017-05-20T07:16:38.138Z,535
2017-05-20T07:17:39.991Z,515
2017-05-20T07:18:41.846Z,445
2017-05-20T07:19:43.911Z,415
2017-05-20T07:20:45.764Z,405
2017-05-20T07:21:47.623Z,405
2017-05-20T07:22:49.478Z,385
2017-05-20T07:24:03.605Z,370
2017-05-20T07:25:05.434Z,370
2017-05-20T07:26:07.286Z,415
2017-05-20T07:27:09.140Z,470
2017-05-20T07:28:10.981Z,545
2017-05-20T07:29:12.811Z,640
2017-05-20T07:30:14.742Z,705
2017-05-20T07:31:16.591Z,720
2017-05-20T07:32:18.446Z,725
2017-05-20T07:33:32.631Z,740
2017-05-20T07:34:34.482Z,760
2017-05-20T07:35:36.336Z,810
2017-05-20T07:36:38.191Z,850
2017-05-20T07:37:40.127Z,845
2017-05-20T07:38:41.978Z,820
2017-05-20T07:39:43.850Z,860
2017-05-20T07:40:45.794Z,820
2017-05-20T07:41:47.715Z,805
2017-05-20T07:43:01.903Z,810
2017-05-20T07:44:03.760Z,805
2017-05-20T07:45:05.669Z,835
2017-05-20T07:46:07.572Z,835
2017-05-20T07:47:09.431Z,820
2017-05-20T07:48:11.272Z,790
2017-05-20T07:49:13.087Z,670
2017-05-20T07:50:14.950Z,595
2017-05-20T07:51:16.891Z,615
2017-05-20T07:52:31.201Z,705
2017-05-20T07:53:33.055Z,765
2017-05-20T07:54:34.902Z,715
2017-05-20T07:55:36.755Z,600
2017-05-20T07:56:38.617Z,525
2017-05-20T07:57:40.465Z,460
2017-05-20T07:58:42.297Z,435
2017-05-20T07:59:44.156Z,370
2017-05-20T08:00:46.000Z,330
2017-05-20T08:02:00.136Z,310
2017-05-20T08:03:01.963Z,310
2017-05-20T08:04:03.812Z,315
2017-05-20T08:05:05.638Z,330
2017-05-20T08:06:07.490Z,360
2017-05-20T08:07:09.346Z,400
2017-05-20T08:08:11.198Z,445
2017-05-20T08:09:13.055Z,490
2017-05-20T08:10:14.902Z,515
2017-05-20T08:11:29.066Z,470
2017-05-20T08:12:30.918Z,405
2017-05-20T08:13:32.750Z,365
2017-05-20T08:14:34.596Z,335
2017-05-20T08:15:36.427Z,335
2017-05-20T08:16:38.328Z,340
2017-05-20T08:17:40.192Z,335
2017-05-20T08:18:42.045Z,330
2017-05-20T08:19:43.895Z,325
2017-05-20T08:20:58.024Z,335
2017-05-20T08:21:59.852Z,330
2017-05-20T08:23:01.706Z,335
2017-05-20T08:24:03.555Z,365
2017-05-20T08:25:05.399Z,355
2017-05-20T08:26:07.223Z,325
2017-05-20T08:27:09.047Z,325
2017-05-20T08:28:10.999Z,330
2017-05-20T08:29:12.880Z,355
2017-05-20T08:30:27.085Z,370
2017-05-20T08:31:28.936Z,365
2017-05-20T08:32:30.784Z,365
2017-05-20T08:33:32.664Z,390
2017-05-20T08:34:34.545Z,410
2017-05-20T08:35:36.461Z,415
2017-05-20T08:36:38.277Z,410
2017-05-20T08:37:40.122Z,410
2017-05-20T08:38:41.973Z,400
2017-05-20T08:39:56.085Z,390
2017-05-20T08:40:57.908Z,395
2017-05-20T08:41:59.734Z,430
2017-05-20T08:43:01.589Z,405
2017-05-20T08:44:03.441Z,365
2017-05-20T08:45:05.295Z,355
2017-05-20T08:46:07.147Z,370
2017-05-20T08:47:09.003Z,400
2017-05-20T08:48:10.870Z,415
2017-05-20T08:49:25.187Z,410
2017-05-20T08:50:27.044Z,435
2017-05-20T08:51:28.873Z,440
2017-05-20T08:52:30.723Z,405
2017-05-20T08:53:32.571Z,375
2017-05-20T08:54:34.625Z,350
2017-05-20T08:55:36.474Z,360
2017-05-20T08:56:38.300Z,355
2017-05-20T08:57:40.126Z,350
2017-05-20T08:58:54.533Z,350
2017-05-20T08:59:56.392Z,350
2017-05-20T09:00:58.243Z,360
2017-05-20T09:02:00.089Z,380
2017-05-20T09:03:01.915Z,430
2017-05-20T09:04:03.750Z,460
2017-05-20T09:05:05.598Z,525
2017-05-20T09:06:07.451Z,635
2017-05-20T09:07:09.282Z,700
2017-05-20T09:08:23.463Z,700
2017-05-20T09:09:25.318Z,740
2017-05-20T09:10:27.182Z,735
2017-05-20T09:11:29.026Z,735
2017-05-20T09:12:30.881Z,755
2017-05-20T09:13:32.728Z,765
2017-05-20T09:14:34.562Z,710
2017-05-20T09:15:36.509Z,630
2017-05-20T09:16:38.346Z,535
2017-05-20T09:17:52.815Z,450
2017-05-20T09:18:54.769Z,410
2017-05-20T09:19:56.616Z,370
2017-05-20T09:20:58.491Z,330
2017-05-20T09:22:00.318Z,340
2017-05-20T09:23:02.175Z,370
2017-05-20T09:24:04.026Z,375
2017-05-20T09:25:05.877Z,355
2017-05-20T09:26:07.734Z,325
2017-05-20T09:27:21.863Z,300
2017-05-20T09:28:23.693Z,285
2017-05-20T09:29:25.544Z,285
2017-05-20T09:30:27.596Z,315
2017-05-20T09:31:42.816Z,350
2017-05-20T09:32:44.675Z,380
2017-05-20T09:33:46.522Z,405
2017-05-20T09:34:48.371Z,425
2017-05-20T09:35:50.206Z,430
2017-05-20T09:37:04.443Z,435
2017-05-20T09:38:06.287Z,470
2017-05-20T09:39:08.119Z,490
2017-05-20T09:40:09.945Z,505
2017-05-20T09:41:11.802Z,515
2017-05-20T09:42:13.673Z,525
2017-05-20T09:43:15.502Z,580
2017-05-20T09:44:17.329Z,615
2017-05-20T09:45:19.157Z,650
2017-05-20T09:46:33.259Z,670
2017-05-20T09:47:35.088Z,650
2017-05-20T09:48:36.938Z,625
2017-05-20T09:49:38.795Z,605
2017-05-20T09:50:40.641Z,590
2017-05-20T09:51:42.473Z,560
2017-05-20T09:52:44.343Z,520
2017-05-20T09:53:46.173Z,470
2017-05-20T09:54:48.023Z,440
2017-05-20T09:56:02.186Z,445
2017-05-20T09:57:04.033Z,475
2017-05-20T09:58:05.892Z,510
2017-05-20T09:59:07.741Z,525
2017-05-20T10:00:09.593Z,590
2017-05-20T10:01:11.448Z,650
2017-05-20T10:02:13.303Z,710
2017-05-20T10:03:15.152Z,715
2017-05-20T10:04:16.984Z,625
2017-05-20T10:05:31.160Z,515
2017-05-20T10:06:33.010Z,510
2017-05-20T10:07:34.943Z,545
2017-05-20T10:08:36.864Z,625
2017-05-20T10:09:38.694Z,735
2017-05-20T10:10:40.520Z,840
2017-05-20T10:11:42.349Z,910
2017-05-20T10:12:44.209Z,915
2017-05-20T10:13:46.077Z,860
2017-05-20T10:15:00.431Z,665
2017-05-20T10:16:02.295Z,520
2017-05-20T10:17:04.123Z,435
2017-05-20T10:18:05.976Z,385
2017-05-20T10:19:07.902Z,350
2017-05-20T10:20:09.731Z,350
2017-05-20T10:21:11.582Z,355
2017-05-20T10:22:13.437Z,350
2017-05-20T10:23:15.288Z,350
2017-05-20T10:24:29.424Z,375
2017-05-20T10:25:31.440Z,410
2017-05-20T10:26:33.258Z,465
2017-05-20T10:27:35.095Z,510
2017-05-20T10:28:36.921Z,550
2017-05-20T10:29:38.776Z,555
2017-05-20T10:30:40.624Z,505
2017-05-20T10:31:42.456Z,465
2017-05-20T10:32:44.308Z,455
2017-05-20T10:33:58.639Z,435
2017-05-20T10:35:00.469Z,430
2017-05-20T10:36:02.325Z,415
2017-05-20T10:37:04.181Z,375
2017-05-20T10:38:06.035Z,385
2017-05-20T10:39:07.855Z,400
2017-05-20T10:40:09.784Z,385
2017-05-20T10:41:11.613Z,390
2017-05-20T10:42:13.462Z,385
2017-05-20T10:43:27.614Z,310
2017-05-20T10:44:29.457Z,280
2017-05-20T10:45:34.521Z,310
2017-05-20T10:46:36.544Z,390
2017-05-20T10:47:38.398Z,470
2017-05-20T10:48:40.257Z,550
2017-05-20T10:49:42.117Z,630
2017-05-20T10:50:43.985Z,690
2017-05-20T10:51:45.815Z,680
2017-05-20T10:52:59.950Z,580
2017-05-20T10:54:01.808Z,495
2017-05-20T10:55:03.665Z,400
2017-05-20T10:56:05.709Z,365
2017-05-20T10:57:07.541Z,315
2017-05-20T10:58:09.394Z,290
2017-05-20T10:59:11.243Z,280
2017-05-20T11:00:13.100Z,280
2017-05-20T11:01:15.203Z,285
2017-05-20T11:02:29.341Z,280
2017-05-20T11:03:31.213Z,285
2017-05-20T11:04:33.058Z,300
2017-05-20T11:05:34.868Z,335
2017-05-20T11:06:36.718Z,385
2017-05-20T11:07:38.563Z,460
2017-05-20T11:08:40.390Z,615
2017-05-20T11:09:42.219Z,710
2017-05-20T11:10:44.071Z,745
2017-05-20T11:11:58.237Z,735
2017-05-20T11:13:00.089Z,710
2017-05-20T11:14:01.937Z,690
2017-05-20T11:15:03.796Z,635
2017-05-20T11:16:05.645Z,570
2017-05-20T11:17:07.495Z,495
2017-05-20T11:18:09.347Z,430
2017-05-20T11:19:11.213Z,355
2017-05-20T11:20:13.313Z,310
2017-05-20T11:21:29.540Z,275
2017-05-20T11:22:31.398Z,260
2017-05-20T11:23:47.018Z,260
2017-05-20T11:24:50.451Z,270
2017-05-20T11:25:52.317Z,305
2017-05-20T11:26:54.548Z,350
2017-05-20T11:27:56.430Z,395
2017-05-20T11:28:58.867Z,420
2017-05-20T11:30:03.087Z,405
2017-05-20T11:31:17.235Z,410
2017-05-20T11:32:19.679Z,400
2017-05-20T11:33:22.968Z,370
2017-05-20T11:34:31.338Z,340
2017-05-20T11:35:33.795Z,330
2017-05-20T11:36:49.369Z,315
2017-05-20T11:37:51.819Z,315
2017-05-20T11:38:54.117Z,305
2017-05-20T11:39:57.982Z,285
2017-05-20T11:41:13.683Z,305
2017-05-20T11:42:19.561Z,340
2017-05-20T11:43:22.051Z,390
2017-05-20T11:44:24.131Z,445
2017-05-20T11:45:26.612Z,485
2017-05-20T11:46:29.057Z,525
2017-05-20T11:47:44.758Z,585
2017-05-20T11:48:46.861Z,625
2017-05-20T11:49:49.377Z,670
2017-05-20T11:51:17.228Z,660
2017-05-20T11:52:20.673Z,620
2017-05-20T11:53:24.117Z,575
2017-05-20T11:54:25.949Z,540
2017-05-20T11:55:28.056Z,485
2017-05-20T11:56:30.106Z,420
2017-05-20T11:57:33.707Z,405
2017-05-20T11:58:36.964Z,395
2017-05-20T11:59:38.811Z,370
2017-05-20T12:00:54.411Z,335
2017-05-20T12:01:56.873Z,330
2017-05-20T12:03:00.332Z,310
2017-05-20T12:04:02.179Z,300
2017-05-20T12:05:04.981Z,300
2017-05-20T12:06:06.862Z,310
2017-05-20T12:07:09.892Z,355
2017-05-20T12:08:15.760Z,375
2017-05-20T12:09:18.225Z,405
2017-05-20T12:10:33.998Z,480
2017-05-20T12:11:35.850Z,550
2017-05-20T12:12:37.708Z,590
2017-05-20T12:13:39.561Z,590
2017-05-20T12:14:41.406Z,570
2017-05-20T12:15:43.233Z,530
2017-05-20T12:16:45.264Z,470
2017-05-20T12:17:47.123Z,465
2017-05-20T12:18:48.948Z,490
2017-05-20T12:20:03.125Z,495
2017-05-20T12:21:04.975Z,440
2017-05-20T12:22:07.005Z,445
2017-05-20T12:23:08.904Z,415
2017-05-20T12:24:10.777Z,390
2017-05-20T12:25:12.719Z,355
2017-05-20T12:26:14.571Z,325
2017-05-20T12:27:16.419Z,315
2017-05-20T12:28:18.243Z,335
2017-05-20T12:29:32.425Z,375
2017-05-20T12:30:34.292Z,365
2017-05-20T12:31:36.132Z,305
2017-05-20T12:32:38.252Z,280
2017-05-20T12:33:40.086Z,265
2017-05-20T12:34:41.909Z,250
2017-05-20T12:35:43.867Z,275
2017-05-20T12:36:45.828Z,310
2017-05-20T12:37:47.858Z,365
2017-05-20T12:39:02.132Z,425
2017-05-20T12:40:03.961Z,470
2017-05-20T12:41:05.786Z,495
2017-05-20T12:42:07.663Z,520
2017-05-20T12:43:09.563Z,555
2017-05-20T12:44:11.428Z,580
2017-05-20T12:45:13.377Z,580
2017-05-20T12:46:15.452Z,545
2017-05-20T12:47:17.403Z,525
2017-05-20T12:48:31.681Z,500
2017-05-20T12:49:33.525Z,480
2017-05-20T12:50:35.357Z,465
2017-05-20T12:51:37.182Z,460
2017-05-20T12:52:39.014Z,470
2017-05-20T12:53:41.083Z,490
2017-05-20T12:54:42.950Z,520
2017-05-20T12:55:44.920Z,545
2017-05-20T12:56:46.767Z,565
2017-05-20T12:58:00.937Z,585
2017-05-20T12:59:02.792Z,585
2017-05-20T13:00:05.646Z,575
2017-05-20T13:01:08.129Z,575
2017-05-20T13:02:11.588Z,590
2017-05-20T13:03:13.418Z,600
2017-05-20T13:04:15.479Z,630
2017-05-20T13:05:18.927Z,660
2017-05-20T13:06:21.720Z,625
2017-05-20T13:07:37.292Z,610
2017-05-20T13:08:40.338Z,615
2017-05-20T13:09:56.116Z,600
2017-05-20T13:11:11.682Z,610
2017-05-20T13:12:19.806Z,585
2017-05-20T13:13:22.634Z,565
2017-05-20T13:14:26.061Z,505
2017-05-20T13:15:10.814Z,445
2017-05-20T13:16:12.848Z,465
2017-05-20T13:17:16.320Z,495
2017-05-20T13:18:18.790Z,550
2017-05-20T13:19:21.605Z,530
2017-05-20T13:20:24.780Z,540
2017-05-20T13:21:09.425Z,540
2017-05-20T13:22:11.861Z,520
2017-05-20T13:23:15.297Z,530
2017-05-20T13:24:18.774Z,525
2017-05-20T13:25:23.022Z,475
2017-05-20T13:26:25.168Z,435
2017-05-20T13:27:28.638Z,435
2017-05-20T13:28:32.080Z,445
2017-05-20T13:29:47.702Z,470
2017-05-20T13:31:02.446Z,480
2017-05-20T13:32:04.908Z,420
2017-05-20T13:33:09.789Z,360
2017-05-20T13:34:12.898Z,360
2017-05-20T13:35:28.427Z,375
2017-05-20T13:36:36.744Z,355
2017-05-20T13:37:39.180Z,320
2017-05-20T13:38:45.330Z,300
2017-05-20T13:39:48.763Z,365
2017-05-20T13:41:03.500Z,420
2017-05-20T13:42:06.363Z,485
2017-05-20T13:43:08.187Z,505
2017-05-20T13:44:10.651Z,565
2017-05-20T13:45:13.086Z,580
2017-05-20T13:46:15.177Z,595
2017-05-20T13:47:19.051Z,635
2017-05-20T13:48:22.489Z,675
2017-05-20T13:49:25.185Z,690
2017-05-20T13:50:40.898Z,695
2017-05-20T13:51:43.947Z,645
2017-05-20T13:52:45.806Z,555
2017-05-20T13:53:49.054Z,505
2017-05-20T13:54:50.933Z,445
2017-05-20T13:55:53.759Z,400
2017-05-20T13:56:57.234Z,365
2017-05-20T13:57:59.086Z,325
2017-05-20T13:59:02.118Z,295
2017-05-20T14:00:17.206Z,225
2017-05-20T14:01:19.233Z,220
2017-05-20T14:02:22.269Z,235
2017-05-20T14:03:43.934Z,245
2017-05-20T14:04:45.795Z,270
2017-05-20T14:05:47.979Z,295
2017-05-20T14:06:52.859Z,320
2017-05-20T14:07:55.903Z,400
2017-05-20T14:08:59.769Z,390
2017-05-20T14:10:16.757Z,425
2017-05-20T14:11:20.331Z,485
2017-05-20T14:12:23.764Z,475
2017-05-20T14:13:28.748Z,520
2017-05-20T14:14:31.279Z,525
2017-05-20T14:15:33.138Z,520
2017-05-20T14:16:48.929Z,500
2017-05-20T14:17:53.176Z,515
2017-05-20T14:18:56.190Z,500
2017-05-20T14:20:11.991Z,435
2017-05-20T14:20:56.693Z,415
2017-05-20T14:21:58.867Z,410
2017-05-20T14:23:00.677Z,455
2017-05-20T14:24:02.627Z,465
2017-05-20T14:25:04.590Z,465
2017-05-20T14:26:06.529Z,455
2017-05-20T14:27:08.429Z,400
2017-05-20T14:28:10.264Z,370
2017-05-20T14:29:12.156Z,415
2017-05-20T14:30:26.458Z,415
2017-05-20T14:31:28.383Z,430
2017-05-20T14:32:30.261Z,435
2017-05-20T14:33:32.145Z,430
2017-05-20T14:34:34.010Z,420
2017-05-20T14:35:35.861Z,415
2017-05-20T14:36:37.719Z,405
2017-05-20T14:37:39.614Z,415
2017-05-20T14:38:41.453Z,420
2017-05-20T14:39:55.657Z,430
2017-05-20T14:40:57.507Z,445
2017-05-20T14:41:59.334Z,435
2017-05-20T14:43:01.284Z,430
2017-05-20T14:44:03.113Z,400
2017-05-20T14:45:04.968Z,375
2017-05-20T14:46:07.033Z,365
2017-05-20T14:47:08.862Z,400
2017-05-20T14:48:10.892Z,385
2017-05-20T14:49:25.076Z,335
2017-05-20T14:50:26.899Z,310